sensor_id;sensor_type;location;lat;lon;timestamp;P1;durP1;ratioP1;P2;durP2;ratioP2
46633;SDS011;32362;49.986;8.026;2023-03-17T00:19:56;10.93;;;4.93;;
46633;SDS011;32362;49.986;8.026;2023-03-17T00:46:37;9.00;;;4.72;;
46633;SDS011;32362;49.986;8.026;2023-03-17T01:13:20;8.30;;;4.50;;
46633;SDS011;32362;49.986;8.026;2023-03-17T01:40:02;10.82;;;5.63;;
46633;SDS011;32362;49.986;8.026;2023-03-17T02:06:43;8.10;;;5.28;;
46633;SDS011;32362;49.986;8.026;2023-03-17T02:33:25;14.88;;;6.07;;
46633;SDS011;32362;49.986;8.026;2023-03-17T03:00:08;7.65;;;4.68;;
46633;SDS011;32362;49.986;8.026;2023-03-17T03:26:49;10.70;;;5.45;;
46633;SDS011;32362;49.986;8.026;2023-03-17T03:53:30;7.88;;;5.15;;
46633;SDS011;32362;49.986;8.026;2023-03-17T04:20:11;11.75;;;5.68;;
46633;SDS011;32362;49.986;8.026;2023-03-17T04:46:53;8.77;;;4.80;;
46633;SDS011;32362;49.986;8.026;2023-03-17T05:13:33;9.87;;;5.57;;
46633;SDS011;32362;49.986;8.026;2023-03-17T05:40:14;12.68;;;5.25;;
46633;SDS011;32362;49.986;8.026;2023-03-17T06:06:55;10.60;;;4.35;;
46633;SDS011;32362;49.986;8.026;2023-03-17T06:33:36;6.28;;;3.92;;
46633;SDS011;32362;49.986;8.026;2023-03-17T07:00:18;10.65;;;4.13;;
46633;SDS011;32362;49.986;8.026;2023-03-17T07:26:59;7.45;;;4.70;;
46633;SDS011;32362;49.986;8.026;2023-03-17T07:53:40;7.63;;;5.00;;
46633;SDS011;32362;49.986;8.026;2023-03-17T08:20:21;9.73;;;5.43;;
46633;SDS011;32362;49.986;8.026;2023-03-17T08:47:02;7.43;;;5.07;;
46633;SDS011;32362;49.986;8.026;2023-03-17T09:13:43;9.13;;;5.57;;
46633;SDS011;32362;49.986;8.026;2023-03-17T09:40:30;8.95;;;5.88;;
46633;SDS011;32362;49.986;8.026;2023-03-17T10:07:36;11.35;;;5.05;;
46633;SDS011;32362;49.986;8.026;2023-03-17T10:34:26;8.70;;;5.22;;
46633;SDS011;32362;49.986;8.026;2023-03-17T11:01:44;8.55;;;5.10;;
46633;SDS011;32362;49.986;8.026;2023-03-17T11:28:23;8.02;;;5.07;;
46633;SDS011;32362;49.986;8.026;2023-03-17T12:21:57;8.80;;;5.82;;
46633;SDS011;32362;49.986;8.026;2023-03-17T12:48:46;9.57;;;5.70;;
46633;SDS011;32362;49.986;8.026;2023-03-17T14:09:17;10.73;;;6.80;;
46633;SDS011;32362;49.986;8.026;2023-03-17T14:36:17;14.80;;;10.57;;
46633;SDS011;32362;49.986;8.026;2023-03-17T15:02:59;13.35;;;8.93;;
46633;SDS011;32362;49.986;8.026;2023-03-17T15:29:43;12.48;;;6.43;;
46633;SDS011;32362;49.986;8.026;2023-03-17T15:56:24;11.68;;;6.85;;
46633;SDS011;32362;49.986;8.026;2023-03-17T16:23:24;10.13;;;6.57;;
46633;SDS011;32362;49.986;8.026;2023-03-17T16:50:15;14.70;;;6.53;;
46633;SDS011;32362;49.986;8.026;2023-03-17T17:16:57;11.05;;;5.88;;
46633;SDS011;32362;49.986;8.026;2023-03-17T17:43:37;14.20;;;7.35;;
46633;SDS011;32362;49.986;8.026;2023-03-17T18:10:19;13.52;;;7.38;;
46633;SDS011;32362;49.986;8.026;2023-03-17T18:37:03;15.98;;;8.13;;
46633;SDS011;32362;49.986;8.026;2023-03-17T19:03:46;21.35;;;9.88;;
46633;SDS011;32362;49.986;8.026;2023-03-17T19:30:27;20.88;;;9.13;;
46633;SDS011;32362;49.986;8.026;2023-03-17T19:57:07;15.88;;;8.80;;
46633;SDS011;32362;49.986;8.026;2023-03-17T20:23:48;16.40;;;8.50;;
